Clarksville, Missouri
Current Conditions -  °F | °C
As of 3:15 PM on Wednesday 26 Nov 2014 (Local Time) from KPPQ Reporting Station
Overcast Overcast  
Wind Chill: 28°   Ceiling: 400
Heat Index: 33°   Visibility: 2.5mi
Dew Point: 32°   Wind: 6mph
Humidity: 96%   Direction: 100°E
Pressure: 30"   Gusts: NA
Location:  39.37°N, 90.91°W
Report Text: KPPQ 262115Z AUTO 10005KT 2 1/2SM OVC004 01/00 A3000 RMK AO2 T00060000 PWINO
Loading
Personal Weather Stations






























Interactive Weather Map New forecast layout! Learn more

10-Day Weather Forecast

Advertisements
Track Severe Weather on mobile